createdAt,value
2019-05-06T00:03:07.276Z,6.68
2019-05-06T00:08:14.724Z,7.39
2019-05-06T00:13:24.144Z,7.90
2019-05-06T00:18:30.009Z,7.45
2019-05-06T00:23:38.223Z,6.62
2019-05-06T00:28:44.805Z,6.95
2019-05-06T00:33:54.023Z,7.33
2019-05-06T00:39:00.059Z,5.94
2019-05-06T00:44:07.767Z,6.91
2019-05-06T00:49:15.278Z,6.19
2019-05-06T00:54:24.758Z,6.10
2019-05-06T00:59:30.547Z,6.87
2019-05-06T01:04:38.202Z,6.36
2019-05-06T01:09:45.782Z,6.96
2019-05-06T01:14:54.558Z,6.41
2019-05-06T01:20:00.050Z,6.99
2019-05-06T01:25:07.650Z,6.90
2019-05-06T01:30:15.116Z,6.84
2019-05-06T01:35:24.436Z,7.65
2019-05-06T01:40:29.319Z,6.80
2019-05-06T01:45:36.849Z,7.75
2019-05-06T01:50:44.527Z,6.19
2019-05-06T01:55:52.105Z,7.61
2019-05-06T02:00:59.447Z,7.34
2019-05-06T02:06:06.956Z,6.25
2019-05-06T02:11:15.017Z,6.36
2019-05-06T02:16:24.043Z,5.74
2019-05-06T02:21:29.865Z,6.73
2019-05-06T02:26:37.392Z,6.86
2019-05-06T02:31:46.055Z,6.08
2019-05-06T02:36:55.141Z,6.29
2019-05-06T02:42:00.192Z,6.93
2019-05-06T02:47:07.597Z,7.42
2019-05-06T02:52:15.310Z,6.98
2019-05-06T02:57:23.808Z,6.74
2019-05-06T03:02:42.116Z,6.51
2019-05-06T03:07:37.891Z,6.76
2019-05-06T03:12:45.293Z,7.20
2019-05-06T03:17:55.371Z,6.39
2019-05-06T03:23:03.530Z,7.54
2019-05-06T03:28:07.881Z,6.77
2019-05-06T03:33:38.448Z,8.45
2019-05-06T03:38:23.035Z,7.31
2019-05-06T03:43:30.374Z,6.19
2019-05-06T03:48:37.939Z,7.63
2019-05-06T03:53:45.390Z,8.08
2019-05-06T03:58:53.677Z,7.54
2019-05-06T04:04:03.313Z,7.74
2019-05-06T04:09:07.215Z,7.15
2019-05-06T04:14:14.851Z,6.98
2019-05-06T04:19:23.719Z,8.87
2019-05-06T04:24:29.957Z,10.89
2019-05-06T04:29:37.496Z,10.13
2019-05-06T04:34:45.178Z,9.67
2019-05-06T04:39:53.555Z,7.99
2019-05-06T04:45:00.236Z,7.70
2019-05-06T04:50:07.889Z,7.21
2019-05-06T04:55:15.347Z,7.32
2019-05-06T05:00:23.390Z,8.27
2019-05-06T05:05:32.860Z,8.43
2019-05-06T05:10:37.804Z,7.30
2019-05-06T05:15:46.694Z,6.98
2019-05-06T05:20:54.008Z,6.39
2019-05-06T05:26:02.932Z,7.23
2019-05-06T05:31:09.239Z,7.40
2019-05-06T05:36:16.792Z,8.18
2019-05-06T05:41:24.389Z,7.73
2019-05-06T05:46:33.028Z,7.72
2019-05-06T05:51:39.429Z,7.79
2019-05-06T05:56:47.158Z,7.77
2019-05-06T06:01:54.592Z,7.67
2019-05-06T06:07:02.757Z,7.19
2019-05-06T06:12:11.936Z,8.55
2019-05-06T06:17:17.443Z,6.34
2019-05-06T06:22:24.972Z,7.62
2019-05-06T06:27:33.188Z,8.30
2019-05-06T06:32:41.838Z,8.52
2019-05-06T06:37:47.504Z,7.79
2019-05-06T06:42:55.080Z,9.76
2019-05-06T06:48:03.138Z,8.73
2019-05-06T06:53:12.178Z,9.88
2019-05-06T06:58:17.818Z,9.04
2019-05-06T07:03:25.161Z,8.74
2019-05-06T07:08:37.363Z,9.46
2019-05-06T07:13:41.994Z,9.82
2019-05-06T07:18:47.936Z,10.61
2019-05-06T07:23:55.455Z,11.50
2019-05-06T07:29:03.999Z,13.09
2019-05-06T07:34:12.007Z,13.19
2019-05-06T07:39:17.597Z,11.61
2019-05-06T07:44:25.265Z,11.22
2019-05-06T07:49:32.942Z,11.08
2019-05-06T07:54:39.371Z,12.05
2019-05-06T07:59:47.076Z,11.55
2019-05-06T08:04:54.539Z,9.96
2019-05-06T08:10:02.363Z,10.37
2019-05-06T08:15:12.529Z,9.95
2019-05-06T08:20:18.312Z,11.25
2019-05-06T08:25:26.653Z,10.71
2019-05-06T08:30:33.949Z,9.37
2019-05-06T08:35:42.528Z,10.54
2019-05-06T08:40:48.905Z,11.11
2019-05-06T08:45:56.420Z,14.00
2019-05-06T08:51:04.449Z,12.18
2019-05-06T08:56:12.681Z,11.00
2019-05-06T09:01:19.286Z,9.64
2019-05-06T09:06:30.204Z,9.28
2019-05-06T09:11:34.667Z,11.79
2019-05-06T09:16:44.048Z,9.36
2019-05-06T09:21:53.070Z,9.52
2019-05-06T09:26:58.612Z,9.97
2019-05-06T09:32:06.413Z,9.96
2019-05-06T09:37:14.225Z,8.29
2019-05-06T09:42:22.996Z,8.96
2019-05-06T09:47:29.254Z,9.12
2019-05-06T09:52:36.668Z,8.52
2019-05-06T09:57:44.200Z,7.55
2019-05-06T10:02:52.776Z,7.74
2019-05-06T10:07:59.334Z,7.80
2019-05-06T10:13:06.860Z,7.69
2019-05-06T10:18:15.134Z,7.15
2019-05-06T10:23:23.261Z,7.13
2019-05-06T10:28:33.238Z,7.08
2019-05-06T10:33:38.332Z,6.16
2019-05-06T10:38:45.888Z,7.03
2019-05-06T10:43:53.107Z,8.11
2019-05-06T10:49:02.564Z,9.27
2019-05-06T10:54:08.166Z,9.30
2019-05-06T10:59:15.685Z,10.33
2019-05-06T11:04:23.104Z,8.35
2019-05-06T11:09:33.153Z,9.12
2019-05-06T11:14:39.285Z,9.31
2019-05-06T11:19:46.738Z,10.32
2019-05-06T11:24:54.329Z,8.61
2019-05-06T11:30:02.407Z,9.61
2019-05-06T11:35:08.641Z,8.80
2019-05-06T11:40:17.044Z,10.04
2019-05-06T11:45:23.601Z,9.68
2019-05-06T11:50:33.288Z,9.09
2019-05-06T11:55:39.078Z,9.32
2019-05-06T12:00:46.383Z,10.05
2019-05-06T12:05:54.465Z,10.35
2019-05-06T12:11:02.915Z,10.08
2019-05-06T12:16:14.056Z,11.48
2019-05-06T12:21:23.227Z,10.43
2019-05-06T12:26:28.736Z,10.50
2019-05-06T12:31:36.349Z,10.95
2019-05-06T12:36:45.097Z,10.08
2019-05-06T12:41:53.415Z,10.38
2019-05-06T12:47:00.251Z,10.29
2019-05-06T12:52:07.554Z,10.02
2019-05-06T12:57:15.792Z,9.91
2019-05-06T13:02:23.798Z,9.14
2019-05-06T13:07:32.318Z,8.95
2019-05-06T13:12:38.144Z,11.16
2019-05-06T13:17:45.619Z,8.07
2019-05-06T13:22:53.573Z,7.07
2019-05-06T13:28:00.525Z,6.67
2019-05-06T13:33:08.675Z,8.06
2019-05-06T13:38:16.491Z,7.07
2019-05-06T13:43:24.853Z,7.16
2019-05-06T13:48:34.322Z,7.44
2019-05-06T13:53:46.031Z,7.88
2019-05-06T13:58:52.431Z,8.73
2019-05-06T14:03:56.756Z,7.58
2019-05-06T14:09:04.617Z,8.91
2019-05-06T14:14:12.691Z,8.15
2019-05-06T14:19:19.700Z,7.28
2019-05-06T14:24:27.446Z,8.37
2019-05-06T14:29:35.456Z,7.83
2019-05-06T14:34:43.555Z,8.73
2019-05-06T14:39:58.166Z,8.83
2019-05-06T14:44:58.894Z,8.86
2019-05-06T14:50:07.034Z,9.63
2019-05-06T14:55:15.281Z,16.37
2019-05-06T15:00:23.051Z,9.38
2019-05-06T15:05:32.116Z,9.50
2019-05-06T15:10:36.401Z,8.59
2019-05-06T15:15:44.062Z,10.33
2019-05-06T15:20:53.106Z,9.63
2019-05-06T15:25:59.350Z,8.78
2019-05-06T15:31:06.792Z,10.15
2019-05-06T15:36:14.158Z,8.38
2019-05-06T15:41:22.330Z,10.15
2019-05-06T15:46:29.446Z,9.60
2019-05-06T15:51:36.968Z,9.50
2019-05-06T15:56:44.616Z,10.14
2019-05-06T16:01:53.195Z,10.74
2019-05-06T16:06:59.771Z,10.26
2019-05-06T16:12:07.453Z,8.52
2019-05-06T16:17:15.178Z,10.61
2019-05-06T16:22:22.879Z,10.01
2019-05-06T16:27:30.334Z,11.43
2019-05-06T16:32:38.706Z,10.35
2019-05-06T16:37:46.057Z,10.26
2019-05-06T16:42:54.656Z,10.60
2019-05-06T16:48:03.509Z,10.47
2019-05-06T16:53:08.723Z,11.11
2019-05-06T16:58:16.297Z,11.35
2019-05-06T17:03:23.861Z,11.93
2019-05-06T17:08:36.333Z,11.69
2019-05-06T17:13:42.554Z,12.04
2019-05-06T17:18:54.149Z,11.43
2019-05-06T17:23:58.722Z,11.07
2019-05-06T17:29:06.448Z,12.16
2019-05-06T17:34:14.203Z,11.37
2019-05-06T17:39:23.065Z,11.27
2019-05-06T17:44:32.704Z,13.24
2019-05-06T17:49:43.156Z,11.36
2019-05-06T17:54:43.039Z,12.00
2019-05-06T17:59:49.707Z,12.47
2019-05-06T18:04:58.216Z,11.87
2019-05-06T18:10:11.864Z,12.43
2019-05-06T18:15:07.356Z,13.03
2019-05-06T18:20:15.171Z,12.83
2019-05-06T18:25:23.136Z,11.82
2019-05-06T18:30:34.330Z,12.08
2019-05-06T18:35:41.847Z,12.59
2019-05-06T18:40:48.057Z,12.38
2019-05-06T18:45:56.320Z,11.66
2019-05-06T18:51:08.456Z,13.20
2019-05-06T18:56:07.642Z,14.39
2019-05-06T19:01:16.488Z,14.96
2019-05-06T19:06:24.010Z,14.64
2019-05-06T19:11:32.697Z,12.96
2019-05-06T19:16:49.694Z,20.16
2019-05-06T19:21:47.669Z,13.11
2019-05-06T19:26:55.398Z,12.73
2019-05-06T19:32:03.201Z,12.64
2019-05-06T19:37:11.118Z,13.18
2019-05-06T19:42:18.396Z,12.58
2019-05-06T19:47:25.860Z,12.95
2019-05-06T19:52:33.990Z,13.44
2019-05-06T19:57:43.178Z,14.25
2019-05-06T20:02:52.148Z,15.82
2019-05-06T20:07:58.319Z,13.78
2019-05-06T20:13:09.798Z,15.56
2019-05-06T20:18:08.382Z,14.94
2019-05-06T20:23:16.986Z,14.74
2019-05-06T20:28:25.895Z,15.42
2019-05-06T20:33:34.422Z,14.55
2019-05-06T20:38:42.917Z,14.30
2019-05-06T20:43:51.577Z,12.71
2019-05-06T20:49:02.439Z,13.62
2019-05-06T20:54:09.632Z,13.40
2019-05-06T20:59:18.293Z,13.42
2019-05-06T21:04:27.119Z,14.47
2019-05-06T21:09:35.627Z,13.35
2019-05-06T21:14:44.980Z,13.68
2019-05-06T21:19:53.214Z,13.48
2019-05-06T21:25:02.483Z,14.01
2019-05-06T21:30:09.925Z,13.88
2019-05-06T21:35:17.507Z,13.81
2019-05-06T21:40:25.326Z,14.08
2019-05-06T21:45:33.278Z,14.66
2019-05-06T21:50:42.511Z,14.09
2019-05-06T21:55:48.463Z,13.70
2019-05-06T22:00:56.690Z,14.98
2019-05-06T22:06:04.692Z,13.80
2019-05-06T22:11:11.931Z,14.24
2019-05-06T22:16:19.801Z,14.17
2019-05-06T22:21:27.468Z,13.97
2019-05-06T22:26:35.017Z,15.21
2019-05-06T22:31:42.551Z,15.61
2019-05-06T22:36:51.899Z,14.10
2019-05-06T22:41:56.925Z,15.32
2019-05-06T22:47:04.268Z,15.65
2019-05-06T22:52:12.584Z,14.86
2019-05-06T22:57:19.313Z,14.38
2019-05-06T23:02:26.979Z,14.61
2019-05-06T23:07:34.400Z,14.88
2019-05-06T23:12:43.356Z,15.11
2019-05-06T23:17:52.698Z,14.37
2019-05-06T23:22:59.122Z,14.56
2019-05-06T23:28:06.748Z,14.47
2019-05-06T23:33:14.328Z,14.21
2019-05-06T23:38:23.026Z,14.25
2019-05-06T23:43:29.471Z,13.56
2019-05-06T23:48:37.008Z,15.20
2019-05-06T23:53:44.379Z,14.73
2019-05-06T23:58:52.413Z,13.72
